Airfield :







YOU CAN JOIN US ON...

 
LOGIN :

Register | Disclaimer

   EN    FR    IT 

 









Legend :    VFR   Marginal VFR   IFR   Intensive IFR   Very Intensive IFR
Visi :
Ceiling :
>= 8 km
>= 3000ft
5 to 8 km
1000 to 3000 ft
1500m to 5 km
500 to 1000 ft
800 to 1500m
200 to 500 ft
< 800m
< 200 ft
Symbols :   Thunderstorms  Fog  Heavy snow  Heavy precipitations  Wind > 20 kt






- Airport Elevation : 234 ft
- IATA code : YMN


CYFT - Makkovik

CURRENT METAR :
  • 231600Z 02009KT 7SM BKN009 OVC030 01/M01 A3010 RMK ST5SC3 SLP199

EXPIRED METARs :
  • 231551Z 03008KT 7SM BKN009 OVC035 01/M01 A3010 RMK ST5SC3 SLP199
  • 231500Z 02006KT 4SM -DZSN OVC008 01/M01 A3011 RMK ST8 SLP202
  • 231455Z 02007KT 5SM -DZ OVC008 01/M01 A3011 RMK ST8 VIS E-S 2 SLP203
  • 231418Z 03006KT 360V060 7SM VCSH BKN007 OVC020 01/M01 A3011 RMK ST6SC2 SLP202
  • 231400Z 02006KT 330V050 7SM -DZ OVC007 01/M01 A3011 RMK ST8 SLP202
  • 231300Z 34004KT 7SM -DZ OVC007 01/M01 A3012 RMK SC8 SLP206
  • 231200Z 34004KT 5SM -DZ BR OVC005 00/M01 A3013 RMK ST8 SLP209
  • 231155Z 34004KT 300V010 5SM -DZ BR OVC005 00/M01 A3013 RMK ST8 SLP209

TAF N/A
CZQX FIR / North America



MET'MAP, your aeronautical weather chart ! - Copyright ORBIFLY December 2007 - Disclaimer

ORBIFLY MET'MAP TEAM :

Programming & Development : Alexandra Zaïnal
Original concept : Baudouin d'Aumeries
Technical & hardware support : Manuel Goepfert
Assistance : Marc-Olivier Méhu




SOURCES & CREDITS :

   NOAA